Terminal Aerodrome Forecast
Issued by NWS Melbourne, FL

Current Version | Previous Version | Text Only | Print | Product List | Glossary On
Versions: 1 2 3 4 5 6 7 8 9 10 11 12 13 14
716
FTUS42 KMLB 121720
TAFVRB
TAF
KVRB 121720Z 1218/1318 22009KT P6SM SKC
     FM122300 25005KT P6SM FEW250
     FM130900 28008KT P6SM FEW030 SCT250
     FM131300 31009KT P6SM FEW250
     FM131600 34014KT P6SM SKC=

USA.gov is the U.S. government's official web portal to all federal, state and local government web resources and services.